Airfield :
LOGIN :

Register | Disclaimer

   EN    FR    IT 

 










Legend :    VFR   Marginal VFR   IFR   Intensive IFR   Very Intensive IFR
Visi :
Ceiling :
>= 8 km
>= 3000ft
5 to 8 km
1000 to 3000 ft
1500m to 5 km
500 to 1000 ft
800 to 1500m
200 to 500 ft
< 800m
< 200 ft
Symbols :   Thunderstorms  Fog  Heavy snow  Heavy precipitations  Wind > 20 kt
SIGMETs :     Misc.  Thunderstorms  Icing  Turbulence  Mountain Waves  Volcanic Ashes






- Airport Elevation : 117 ft
- IATA code : NWI


EGSH - Norwich

CURRENT METAR :
  • 250420Z AUTO VRB01KT 8000 NCD 10/09 Q1019

EXPIRED METARs :
  • 250350Z AUTO 35002KT 9999 NCD 10/09 Q1019
  • 250320Z AUTO VRB01KT 8000 NCD 10/09 Q1019
  • 250250Z AUTO VRB01KT 9999 NCD 10/09 Q1019
  • 250220Z AUTO VRB01KT 9999 NCD 10/09 Q1020
  • 250150Z AUTO 32001KT 9999 NCD 10/09 Q1020
  • 250120Z AUTO 35001KT 9000 NCD 10/09 Q1020
  • 250050Z AUTO 04002KT 8000 FEW034/// 10/09 Q1020
  • 250020Z AUTO 03002KT 9999 BKN029/// 10/09 Q1020
  • 242350Z AUTO 03001KT 9999 SCT028/// 10/09 Q1021

TAF TAF EGSH
Valid from the 25 at 03:00 until the 25 at 12:00 UTC


250153Z 2503/2512 08004KT 9999 FEW018 SCT030
BECMG 2503/2506 02010KT
PROB30
TEMPO 2503/2506 6000 RA
TEMPO 2506/2512 4000 RA BKN006
ATIS : +44 1603 420 640



MET'MAP, your aeronautical weather chart ! - Copyright ORBIFLY December 2007 - Disclaimer

ORBIFLY MET'MAP TEAM :

Programming & Development : Alexandra Zaïnal
Original concept : Baudouin d'Aumeries
Technical & hardware support : Manuel Goepfert
Assistance : Marc-Olivier Méhu




SOURCES & CREDITS :

   NOAA